sensor_id;sensor_type;location;lat;lon;timestamp;temperature;humidity
78779;DHT22;68121;52.404;5.318;2023-04-03T00:01:41;4.90;59.40
78779;DHT22;68121;52.404;5.318;2023-04-03T00:04:08;4.90;59.30
78779;DHT22;68121;52.404;5.318;2023-04-03T00:06:34;4.90;59.30
78779;DHT22;68121;52.404;5.318;2023-04-03T00:09:00;4.90;59.40
78779;DHT22;68121;52.404;5.318;2023-04-03T00:11:27;4.80;59.40
78779;DHT22;68121;52.404;5.318;2023-04-03T00:13:53;4.80;59.40
78779;DHT22;68121;52.404;5.318;2023-04-03T00:16:19;4.80;59.50
78779;DHT22;68121;52.404;5.318;2023-04-03T00:18:45;4.70;59.50
78779;DHT22;68121;52.404;5.318;2023-04-03T00:21:13;4.70;59.50
78779;DHT22;68121;52.404;5.318;2023-04-03T00:23:39;4.70;59.50
78779;DHT22;68121;52.404;5.318;2023-04-03T00:26:06;4.70;59.60
78779;DHT22;68121;52.404;5.318;2023-04-03T00:28:32;4.70;59.60
78779;DHT22;68121;52.404;5.318;2023-04-03T00:30:58;4.70;59.60
78779;DHT22;68121;52.404;5.318;2023-04-03T00:33:24;4.70;59.70
78779;DHT22;68121;52.404;5.318;2023-04-03T00:35:50;4.60;59.70
78779;DHT22;68121;52.404;5.318;2023-04-03T00:38:17;4.60;59.70
78779;DHT22;68121;52.404;5.318;2023-04-03T00:40:46;4.60;59.70
78779;DHT22;68121;52.404;5.318;2023-04-03T00:43:17;4.60;59.70
78779;DHT22;68121;52.404;5.318;2023-04-03T00:45:46;4.60;59.80
78779;DHT22;68121;52.404;5.318;2023-04-03T00:48:17;4.60;59.90
78779;DHT22;68121;52.404;5.318;2023-04-03T00:50:45;4.50;60.00
78779;DHT22;68121;52.404;5.318;2023-04-03T00:53:16;4.50;60.00
78779;DHT22;68121;52.404;5.318;2023-04-03T00:55:47;4.50;60.00
78779;DHT22;68121;52.404;5.318;2023-04-03T00:58:17;4.50;60.10
78779;DHT22;68121;52.404;5.318;2023-04-03T01:00:48;4.50;60.10
78779;DHT22;68121;52.404;5.318;2023-04-03T01:03:15;4.50;60.10
78779;DHT22;68121;52.404;5.318;2023-04-03T01:05:41;4.50;60.10
78779;DHT22;68121;52.404;5.318;2023-04-03T01:08:07;4.50;60.10
78779;DHT22;68121;52.404;5.318;2023-04-03T01:10:33;4.50;60.20
78779;DHT22;68121;52.404;5.318;2023-04-03T01:13:00;4.50;60.20
78779;DHT22;68121;52.404;5.318;2023-04-03T01:15:28;4.40;60.20
78779;DHT22;68121;52.404;5.318;2023-04-03T01:18:00;4.40;60.30
78779;DHT22;68121;52.404;5.318;2023-04-03T01:25:51;4.30;60.50
78779;DHT22;68121;52.404;5.318;2023-04-03T01:28:23;4.30;60.50
78779;DHT22;68121;52.404;5.318;2023-04-03T01:31:31;4.30;60.50
78779;DHT22;68121;52.404;5.318;2023-04-03T01:33:59;4.20;60.60
78779;DHT22;68121;52.404;5.318;2023-04-03T01:36:28;4.20;60.50
78779;DHT22;68121;52.404;5.318;2023-04-03T01:38:56;4.20;60.60
78779;DHT22;68121;52.404;5.318;2023-04-03T01:41:23;4.20;60.60
78779;DHT22;68121;52.404;5.318;2023-04-03T01:43:49;4.10;60.70
78779;DHT22;68121;52.404;5.318;2023-04-03T01:46:16;4.10;60.70
78779;DHT22;68121;52.404;5.318;2023-04-03T01:48:44;4.10;60.80
78779;DHT22;68121;52.404;5.318;2023-04-03T01:51:10;4.10;60.80
78779;DHT22;68121;52.404;5.318;2023-04-03T01:53:37;4.10;60.80
78779;DHT22;68121;52.404;5.318;2023-04-03T01:56:03;4.00;60.90
78779;DHT22;68121;52.404;5.318;2023-04-03T01:58:30;4.00;61.00
78779;DHT22;68121;52.404;5.318;2023-04-03T02:00:56;3.90;61.10
78779;DHT22;68121;52.404;5.318;2023-04-03T02:03:22;3.90;61.20
78779;DHT22;68121;52.404;5.318;2023-04-03T02:05:49;3.90;61.20
78779;DHT22;68121;52.404;5.318;2023-04-03T02:08:15;3.90;61.20
78779;DHT22;68121;52.404;5.318;2023-04-03T02:10:46;3.90;61.20
78779;DHT22;68121;52.404;5.318;2023-04-03T02:13:14;3.80;61.30
78779;DHT22;68121;52.404;5.318;2023-04-03T02:15:40;3.70;61.40
78779;DHT22;68121;52.404;5.318;2023-04-03T02:18:07;3.70;61.40
78779;DHT22;68121;52.404;5.318;2023-04-03T02:20:33;3.70;61.50
78779;DHT22;68121;52.404;5.318;2023-04-03T02:22:59;3.60;61.50
78779;DHT22;68121;52.404;5.318;2023-04-03T02:25:26;3.60;61.70
78779;DHT22;68121;52.404;5.318;2023-04-03T02:27:52;3.50;61.80
78779;DHT22;68121;52.404;5.318;2023-04-03T02:30:18;3.50;61.80
78779;DHT22;68121;52.404;5.318;2023-04-03T02:32:44;3.50;61.90
78779;DHT22;68121;52.404;5.318;2023-04-03T02:35:11;3.50;61.90
78779;DHT22;68121;52.404;5.318;2023-04-03T02:37:37;3.50;62.00
78779;DHT22;68121;52.404;5.318;2023-04-03T02:40:04;3.50;62.10
78779;DHT22;68121;52.404;5.318;2023-04-03T02:42:31;3.50;62.10
78779;DHT22;68121;52.404;5.318;2023-04-03T02:44:57;3.40;62.10
78779;DHT22;68121;52.404;5.318;2023-04-03T02:47:23;3.40;62.20
78779;DHT22;68121;52.404;5.318;2023-04-03T02:49:49;3.40;62.20
78779;DHT22;68121;52.404;5.318;2023-04-03T02:52:18;3.40;62.30
78779;DHT22;68121;52.404;5.318;2023-04-03T02:54:44;3.40;62.30
78779;DHT22;68121;52.404;5.318;2023-04-03T02:57:10;3.40;62.30
78779;DHT22;68121;52.404;5.318;2023-04-03T02:59:37;3.40;62.30
78779;DHT22;68121;52.404;5.318;2023-04-03T03:02:10;3.40;62.40
78779;DHT22;68121;52.404;5.318;2023-04-03T03:04:37;3.30;62.50
78779;DHT22;68121;52.404;5.318;2023-04-03T03:07:03;3.30;62.50
78779;DHT22;68121;52.404;5.318;2023-04-03T03:09:30;3.30;62.50
78779;DHT22;68121;52.404;5.318;2023-04-03T03:11:56;3.30;62.50
78779;DHT22;68121;52.404;5.318;2023-04-03T03:14:23;3.30;62.60
78779;DHT22;68121;52.404;5.318;2023-04-03T03:16:49;3.30;62.70
78779;DHT22;68121;52.404;5.318;2023-04-03T03:19:15;3.20;62.70
78779;DHT22;68121;52.404;5.318;2023-04-03T03:21:42;3.20;62.80
78779;DHT22;68121;52.404;5.318;2023-04-03T03:24:08;3.20;62.80
78779;DHT22;68121;52.404;5.318;2023-04-03T03:26:34;3.20;62.90
78779;DHT22;68121;52.404;5.318;2023-04-03T03:29:00;3.20;62.90
78779;DHT22;68121;52.404;5.318;2023-04-03T03:31:26;3.10;63.00
78779;DHT22;68121;52.404;5.318;2023-04-03T03:33:52;3.10;63.10
78779;DHT22;68121;52.404;5.318;2023-04-03T03:36:18;3.10;63.10
78779;DHT22;68121;52.404;5.318;2023-04-03T03:38:44;3.00;63.20
78779;DHT22;68121;52.404;5.318;2023-04-03T03:41:11;3.00;63.30
78779;DHT22;68121;52.404;5.318;2023-04-03T03:43:37;3.00;63.40
78779;DHT22;68121;52.404;5.318;2023-04-03T03:46:03;2.90;63.40
78779;DHT22;68121;52.404;5.318;2023-04-03T03:48:29;3.00;63.50
78779;DHT22;68121;52.404;5.318;2023-04-03T03:50:56;3.00;63.50
78779;DHT22;68121;52.404;5.318;2023-04-03T03:53:22;2.90;63.50
78779;DHT22;68121;52.404;5.318;2023-04-03T03:55:48;2.90;63.60
78779;DHT22;68121;52.404;5.318;2023-04-03T03:58:14;2.90;63.60
78779;DHT22;68121;52.404;5.318;2023-04-03T04:00:40;2.90;63.70
78779;DHT22;68121;52.404;5.318;2023-04-03T04:03:07;2.90;63.70
78779;DHT22;68121;52.404;5.318;2023-04-03T04:05:33;2.90;63.70
78779;DHT22;68121;52.404;5.318;2023-04-03T04:07:59;2.90;63.70
78779;DHT22;68121;52.404;5.318;2023-04-03T04:10:25;2.80;63.80
78779;DHT22;68121;52.404;5.318;2023-04-03T04:12:51;2.80;63.90
78779;DHT22;68121;52.404;5.318;2023-04-03T04:15:17;2.70;64.00
78779;DHT22;68121;52.404;5.318;2023-04-03T04:17:44;2.70;64.00
78779;DHT22;68121;52.404;5.318;2023-04-03T04:20:11;2.60;64.10
78779;DHT22;68121;52.404;5.318;2023-04-03T04:22:37;2.60;64.20
78779;DHT22;68121;52.404;5.318;2023-04-03T04:25:04;2.60;64.20
78779;DHT22;68121;52.404;5.318;2023-04-03T04:27:31;2.70;64.20
78779;DHT22;68121;52.404;5.318;2023-04-03T04:29:57;2.60;64.30
78779;DHT22;68121;52.404;5.318;2023-04-03T04:32:23;2.60;64.30
78779;DHT22;68121;52.404;5.318;2023-04-03T04:34:49;2.60;64.30
78779;DHT22;68121;52.404;5.318;2023-04-03T04:37:15;2.60;64.30
78779;DHT22;68121;52.404;5.318;2023-04-03T04:39:41;2.60;64.40
78779;DHT22;68121;52.404;5.318;2023-04-03T04:42:07;2.60;64.40
78779;DHT22;68121;52.404;5.318;2023-04-03T04:44:40;2.60;64.40
78779;DHT22;68121;52.404;5.318;2023-04-03T04:47:06;2.50;64.40
78779;DHT22;68121;52.404;5.318;2023-04-03T04:49:32;2.50;64.50
78779;DHT22;68121;52.404;5.318;2023-04-03T04:51:58;2.50;64.50
78779;DHT22;68121;52.404;5.318;2023-04-03T04:54:24;2.50;64.70
78779;DHT22;68121;52.404;5.318;2023-04-03T04:56:50;2.50;64.70
78779;DHT22;68121;52.404;5.318;2023-04-03T04:59:16;2.50;64.70
78779;DHT22;68121;52.404;5.318;2023-04-03T05:01:42;2.50;64.70
78779;DHT22;68121;52.404;5.318;2023-04-03T05:04:09;2.40;64.70
78779;DHT22;68121;52.404;5.318;2023-04-03T05:06:35;2.40;64.80
78779;DHT22;68121;52.404;5.318;2023-04-03T05:09:01;2.40;64.90
78779;DHT22;68121;52.404;5.318;2023-04-03T05:11:28;2.40;65.00
78779;DHT22;68121;52.404;5.318;2023-04-03T05:13:54;2.30;65.00
78779;DHT22;68121;52.404;5.318;2023-04-03T05:16:20;2.30;65.00
78779;DHT22;68121;52.404;5.318;2023-04-03T05:18:47;2.30;65.00
78779;DHT22;68121;52.404;5.318;2023-04-03T05:21:13;2.30;65.10
78779;DHT22;68121;52.404;5.318;2023-04-03T05:23:39;2.50;65.30
78779;DHT22;68121;52.404;5.318;2023-04-03T05:26:05;2.60;65.00
78779;DHT22;68121;52.404;5.318;2023-04-03T05:28:31;2.60;64.90
78779;DHT22;68121;52.404;5.318;2023-04-03T05:30:58;2.50;64.80
78779;DHT22;68121;52.404;5.318;2023-04-03T05:33:25;2.50;64.90
78779;DHT22;68121;52.404;5.318;2023-04-03T05:35:52;2.50;65.00
78779;DHT22;68121;52.404;5.318;2023-04-03T05:38:19;2.50;65.00
78779;DHT22;68121;52.404;5.318;2023-04-03T05:40:45;2.50;65.00
78779;DHT22;68121;52.404;5.318;2023-04-03T05:43:12;2.50;65.00
78779;DHT22;68121;52.404;5.318;2023-04-03T05:45:38;2.50;65.00
78779;DHT22;68121;52.404;5.318;2023-04-03T05:48:04;2.40;65.00
78779;DHT22;68121;52.404;5.318;2023-04-03T05:50:30;2.40;65.20
78779;DHT22;68121;52.404;5.318;2023-04-03T05:52:59;2.50;65.20
78779;DHT22;68121;52.404;5.318;2023-04-03T05:55:25;2.50;65.20
78779;DHT22;68121;52.404;5.318;2023-04-03T05:57:51;2.60;65.10
78779;DHT22;68121;52.404;5.318;2023-04-03T06:00:17;2.70;65.10
78779;DHT22;68121;52.404;5.318;2023-04-03T06:02:43;2.70;65.00
78779;DHT22;68121;52.404;5.318;2023-04-03T06:05:09;2.80;64.90
78779;DHT22;68121;52.404;5.318;2023-04-03T06:07:37;2.80;64.90
78779;DHT22;68121;52.404;5.318;2023-04-03T06:10:04;2.90;65.00
78779;DHT22;68121;52.404;5.318;2023-04-03T06:12:31;2.90;64.90
78779;DHT22;68121;52.404;5.318;2023-04-03T06:14:57;3.00;64.90
78779;DHT22;68121;52.404;5.318;2023-04-03T06:17:23;3.00;64.80
78779;DHT22;68121;52.404;5.318;2023-04-03T06:19:49;3.10;64.80
78779;DHT22;68121;52.404;5.318;2023-04-03T06:22:16;3.10;64.70
78779;DHT22;68121;52.404;5.318;2023-04-03T06:24:42;3.20;64.70
78779;DHT22;68121;52.404;5.318;2023-04-03T06:27:10;3.30;64.60
78779;DHT22;68121;52.404;5.318;2023-04-03T06:29:37;3.30;64.50
78779;DHT22;68121;52.404;5.318;2023-04-03T06:32:03;3.30;64.50
78779;DHT22;68121;52.404;5.318;2023-04-03T06:34:29;3.50;64.40
78779;DHT22;68121;52.404;5.318;2023-04-03T06:36:55;3.50;64.40
78779;DHT22;68121;52.404;5.318;2023-04-03T06:39:21;3.50;64.30
78779;DHT22;68121;52.404;5.318;2023-04-03T06:41:51;3.50;64.30
78779;DHT22;68121;52.404;5.318;2023-04-03T06:44:17;3.60;64.20
78779;DHT22;68121;52.404;5.318;2023-04-03T06:46:44;3.70;64.30
78779;DHT22;68121;52.404;5.318;2023-04-03T06:49:10;3.90;64.10
78779;DHT22;68121;52.404;5.318;2023-04-03T06:51:37;4.00;63.90
78779;DHT22;68121;52.404;5.318;2023-04-03T06:54:04;4.10;63.70
78779;DHT22;68121;52.404;5.318;2023-04-03T06:56:32;4.20;63.70
78779;DHT22;68121;52.404;5.318;2023-04-03T06:58:58;4.30;63.60
78779;DHT22;68121;52.404;5.318;2023-04-03T07:01:27;4.50;63.40
78779;DHT22;68121;52.404;5.318;2023-04-03T07:03:55;4.50;63.30
78779;DHT22;68121;52.404;5.318;2023-04-03T07:06:22;4.70;63.40
78779;DHT22;68121;52.404;5.318;2023-04-03T07:08:48;4.90;63.20
78779;DHT22;68121;52.404;5.318;2023-04-03T07:11:15;5.00;62.90
78779;DHT22;68121;52.404;5.318;2023-04-03T07:13:41;5.00;62.80
78779;DHT22;68121;52.404;5.318;2023-04-03T07:16:08;5.00;62.80
78779;DHT22;68121;52.404;5.318;2023-04-03T07:18:34;5.10;62.70
78779;DHT22;68121;52.404;5.318;2023-04-03T07:21:01;5.30;62.50
78779;DHT22;68121;52.404;5.318;2023-04-03T07:23:29;5.30;62.40
78779;DHT22;68121;52.404;5.318;2023-04-03T07:25:55;5.50;62.10
78779;DHT22;68121;52.404;5.318;2023-04-03T07:28:22;5.50;62.00
78779;DHT22;68121;52.404;5.318;2023-04-03T07:30:51;5.50;61.80
78779;DHT22;68121;52.404;5.318;2023-04-03T07:33:19;5.50;61.70
78779;DHT22;68121;52.404;5.318;2023-04-03T07:35:45;5.50;61.40
78779;DHT22;68121;52.404;5.318;2023-04-03T07:38:11;5.50;61.40
78779;DHT22;68121;52.404;5.318;2023-04-03T07:40:38;5.50;61.00
78779;DHT22;68121;52.404;5.318;2023-04-03T07:43:04;5.40;61.10
78779;DHT22;68121;52.404;5.318;2023-04-03T07:45:31;5.40;61.10
78779;DHT22;68121;52.404;5.318;2023-04-03T07:47:58;5.50;61.10
78779;DHT22;68121;52.404;5.318;2023-04-03T07:50:24;5.70;61.00
78779;DHT22;68121;52.404;5.318;2023-04-03T07:52:50;5.90;60.70
78779;DHT22;68121;52.404;5.318;2023-04-03T07:55:18;6.00;60.50
78779;DHT22;68121;52.404;5.318;2023-04-03T07:57:44;6.10;60.30
78779;DHT22;68121;52.404;5.318;2023-04-03T08:00:11;6.10;60.00
78779;DHT22;68121;52.404;5.318;2023-04-03T08:02:38;6.10;59.90
78779;DHT22;68121;52.404;5.318;2023-04-03T08:05:04;6.20;60.00
78779;DHT22;68121;52.404;5.318;2023-04-03T08:07:31;6.40;59.70
78779;DHT22;68121;52.404;5.318;2023-04-03T08:09:57;6.50;59.20
78779;DHT22;68121;52.404;5.318;2023-04-03T08:12:23;6.60;59.10
78779;DHT22;68121;52.404;5.318;2023-04-03T08:14:49;6.70;59.00
78779;DHT22;68121;52.404;5.318;2023-04-03T08:17:15;6.80;58.90
78779;DHT22;68121;52.404;5.318;2023-04-03T08:19:41;7.00;58.60
78779;DHT22;68121;52.404;5.318;2023-04-03T08:22:07;7.00;58.40
78779;DHT22;68121;52.404;5.318;2023-04-03T08:24:33;7.20;58.20
78779;DHT22;68121;52.404;5.318;2023-04-03T08:27:00;7.30;58.10
78779;DHT22;68121;52.404;5.318;2023-04-03T08:29:27;7.50;57.90
78779;DHT22;68121;52.404;5.318;2023-04-03T08:31:53;7.50;57.30
78779;DHT22;68121;52.404;5.318;2023-04-03T08:34:20;7.60;57.10
78779;DHT22;68121;52.404;5.318;2023-04-03T08:36:46;7.80;56.80
78779;DHT22;68121;52.404;5.318;2023-04-03T08:39:12;7.80;56.50
78779;DHT22;68121;52.404;5.318;2023-04-03T08:41:39;7.80;56.40
78779;DHT22;68121;52.404;5.318;2023-04-03T08:49:53;8.00;55.20
78779;DHT22;68121;52.404;5.318;2023-04-03T08:52:39;8.00;54.80
78779;DHT22;68121;52.404;5.318;2023-04-03T08:57:47;8.10;54.20
78779;DHT22;68121;52.404;5.318;2023-04-03T09:00:20;8.10;53.50
78779;DHT22;68121;52.404;5.318;2023-04-03T09:02:52;8.20;53.10
78779;DHT22;68121;52.404;5.318;2023-04-03T09:05:26;8.20;52.20
78779;DHT22;68121;52.404;5.318;2023-04-03T09:08:03;8.10;52.10
78779;DHT22;68121;52.404;5.318;2023-04-03T09:10:33;8.20;52.20
78779;DHT22;68121;52.404;5.318;2023-04-03T09:15:47;8.40;51.30
78779;DHT22;68121;52.404;5.318;2023-04-03T09:18:19;8.50;50.90
78779;DHT22;68121;52.404;5.318;2023-04-03T09:20:53;8.60;50.80
78779;DHT22;68121;52.404;5.318;2023-04-03T09:23:31;8.60;50.10
78779;DHT22;68121;52.404;5.318;2023-04-03T09:26:05;8.80;50.10
78779;DHT22;68121;52.404;5.318;2023-04-03T09:28:38;9.00;50.00
78779;DHT22;68121;52.404;5.318;2023-04-03T09:31:36;9.00;49.40
78779;DHT22;68121;52.404;5.318;2023-04-03T09:34:05;9.00;48.60
78779;DHT22;68121;52.404;5.318;2023-04-03T09:36:45;8.80;48.60
78779;DHT22;68121;52.404;5.318;2023-04-03T09:39:17;8.80;48.80
78779;DHT22;68121;52.404;5.318;2023-04-03T09:42:05;9.00;48.70
78779;DHT22;68121;52.404;5.318;2023-04-03T09:44:35;9.20;47.90
78779;DHT22;68121;52.404;5.318;2023-04-03T09:47:22;9.40;47.50
78779;DHT22;68121;52.404;5.318;2023-04-03T09:49:49;9.30;47.20
78779;DHT22;68121;52.404;5.318;2023-04-03T09:52:33;9.40;47.10
78779;DHT22;68121;52.404;5.318;2023-04-03T09:58:00;9.30;46.10
78779;DHT22;68121;52.404;5.318;2023-04-03T10:00:36;9.30;46.10
78779;DHT22;68121;52.404;5.318;2023-04-03T10:03:03;9.40;46.20
78779;DHT22;68121;52.404;5.318;2023-04-03T10:05:41;9.50;45.50
78779;DHT22;68121;52.404;5.318;2023-04-03T10:10:45;9.60;46.00
78779;DHT22;68121;52.404;5.318;2023-04-03T10:13:13;9.70;45.90
78779;DHT22;68121;52.404;5.318;2023-04-03T10:15:45;9.80;46.10
78779;DHT22;68121;52.404;5.318;2023-04-03T10:23:47;10.20;45.20
78779;DHT22;68121;52.404;5.318;2023-04-03T10:26:37;10.20;44.10
78779;DHT22;68121;52.404;5.318;2023-04-03T10:34:46;9.60;43.00
78779;DHT22;68121;52.404;5.318;2023-04-03T10:39:53;9.70;43.60
78779;DHT22;68121;52.404;5.318;2023-04-03T10:47:27;10.10;42.70
78779;DHT22;68121;52.404;5.318;2023-04-03T10:50:36;10.10;42.80
78779;DHT22;68121;52.404;5.318;2023-04-03T10:57:54;10.40;42.30
78779;DHT22;68121;52.404;5.318;2023-04-03T11:03:14;10.60;42.20
78779;DHT22;68121;52.404;5.318;2023-04-03T11:05:45;10.60;42.10
78779;DHT22;68121;52.404;5.318;2023-04-03T11:08:33;10.50;42.20
78779;DHT22;68121;52.404;5.318;2023-04-03T11:11:08;10.60;42.50
78779;DHT22;68121;52.404;5.318;2023-04-03T11:13:40;10.60;41.90
78779;DHT22;68121;52.404;5.318;2023-04-03T11:16:08;10.60;42.00
78779;DHT22;68121;52.404;5.318;2023-04-03T11:18:43;10.50;42.20
78779;DHT22;68121;52.404;5.318;2023-04-03T11:21:13;10.60;42.30
78779;DHT22;68121;52.404;5.318;2023-04-03T11:23:42;10.80;42.20
78779;DHT22;68121;52.404;5.318;2023-04-03T11:26:15;10.90;42.00
78779;DHT22;68121;52.404;5.318;2023-04-03T11:28:42;10.90;41.50
78779;DHT22;68121;52.404;5.318;2023-04-03T11:36:55;11.30;42.10
78779;DHT22;68121;52.404;5.318;2023-04-03T11:41:52;11.50;41.80
78779;DHT22;68121;52.404;5.318;2023-04-03T11:44:37;11.50;41.90
78779;DHT22;68121;52.404;5.318;2023-04-03T11:47:06;11.70;41.40
78779;DHT22;68121;52.404;5.318;2023-04-03T12:03:32;12.50;41.40
78779;DHT22;68121;52.404;5.318;2023-04-03T12:13:36;11.60;40.80
78779;DHT22;68121;52.404;5.318;2023-04-03T12:16:04;11.50;41.10
78779;DHT22;68121;52.404;5.318;2023-04-03T12:18:41;11.50;41.20
78779;DHT22;68121;52.404;5.318;2023-04-03T12:21:09;11.60;41.10
78779;DHT22;68121;52.404;5.318;2023-04-03T12:26:32;12.00;41.60
78779;DHT22;68121;52.404;5.318;2023-04-03T12:29:13;12.30;41.50
78779;DHT22;68121;52.404;5.318;2023-04-03T12:48:32;12.50;41.10
78779;DHT22;68121;52.404;5.318;2023-04-03T12:50:59;12.50;41.00
78779;DHT22;68121;52.404;5.318;2023-04-03T12:53:35;12.30;40.90
78779;DHT22;68121;52.404;5.318;2023-04-03T12:58:50;12.30;40.60
78779;DHT22;68121;52.404;5.318;2023-04-03T13:01:20;12.30;41.10
78779;DHT22;68121;52.404;5.318;2023-04-03T13:03:53;12.50;41.00
78779;DHT22;68121;52.404;5.318;2023-04-03T13:06:23;12.50;40.70
78779;DHT22;68121;52.404;5.318;2023-04-03T13:08:57;12.40;40.80
78779;DHT22;68121;52.404;5.318;2023-04-03T13:11:25;12.20;40.60
78779;DHT22;68121;52.404;5.318;2023-04-03T13:14:01;12.00;40.70
78779;DHT22;68121;52.404;5.318;2023-04-03T13:16:29;11.90;41.00
78779;DHT22;68121;52.404;5.318;2023-04-03T13:18:55;12.00;41.10
78779;DHT22;68121;52.404;5.318;2023-04-03T13:21:30;12.10;41.00
78779;DHT22;68121;52.404;5.318;2023-04-03T13:24:01;12.10;41.20
78779;DHT22;68121;52.404;5.318;2023-04-03T13:26:31;12.20;40.60
78779;DHT22;68121;52.404;5.318;2023-04-03T13:29:05;12.20;41.00
78779;DHT22;68121;52.404;5.318;2023-04-03T13:31:35;12.30;41.20
78779;DHT22;68121;52.404;5.318;2023-04-03T13:34:18;12.30;40.90
78779;DHT22;68121;52.404;5.318;2023-04-03T13:41:54;12.20;40.90
78779;DHT22;68121;52.404;5.318;2023-04-03T13:46:52;12.10;40.90
78779;DHT22;68121;52.404;5.318;2023-04-03T13:51:48;12.00;41.00
78779;DHT22;68121;52.404;5.318;2023-04-03T13:54:24;12.10;41.20
78779;DHT22;68121;52.404;5.318;2023-04-03T13:56:59;12.10;41.30
78779;DHT22;68121;52.404;5.318;2023-04-03T13:59:33;12.10;41.10
78779;DHT22;68121;52.404;5.318;2023-04-03T14:07:03;12.00;41.50
78779;DHT22;68121;52.404;5.318;2023-04-03T14:09:29;12.00;41.50
78779;DHT22;68121;52.404;5.318;2023-04-03T14:12:00;12.10;41.60
78779;DHT22;68121;52.404;5.318;2023-04-03T14:14:34;12.00;41.50
78779;DHT22;68121;52.404;5.318;2023-04-03T14:17:03;11.90;41.50
78779;DHT22;68121;52.404;5.318;2023-04-03T14:19:36;11.90;41.80
78779;DHT22;68121;52.404;5.318;2023-04-03T14:22:21;12.00;42.10
78779;DHT22;68121;52.404;5.318;2023-04-03T14:24:48;12.20;42.10
78779;DHT22;68121;52.404;5.318;2023-04-03T14:27:32;12.30;42.10
78779;DHT22;68121;52.404;5.318;2023-04-03T14:29:59;12.30;41.80
78779;DHT22;68121;52.404;5.318;2023-04-03T14:32:27;12.20;41.90
78779;DHT22;68121;52.404;5.318;2023-04-03T14:34:53;12.30;42.00
78779;DHT22;68121;52.404;5.318;2023-04-03T14:37:23;12.30;41.60
78779;DHT22;68121;52.404;5.318;2023-04-03T14:39:51;12.10;41.50
78779;DHT22;68121;52.404;5.318;2023-04-03T14:42:24;12.00;41.50
78779;DHT22;68121;52.404;5.318;2023-04-03T14:44:50;11.90;41.70
78779;DHT22;68121;52.404;5.318;2023-04-03T14:47:20;11.90;41.80
78779;DHT22;68121;52.404;5.318;2023-04-03T14:49:47;11.90;41.70
78779;DHT22;68121;52.404;5.318;2023-04-03T14:52:22;11.70;42.00
78779;DHT22;68121;52.404;5.318;2023-04-03T14:54:49;11.70;41.90
78779;DHT22;68121;52.404;5.318;2023-04-03T14:57:17;11.70;41.90
78779;DHT22;68121;52.404;5.318;2023-04-03T14:59:44;11.70;42.00
78779;DHT22;68121;52.404;5.318;2023-04-03T15:02:33;11.70;41.90
78779;DHT22;68121;52.404;5.318;2023-04-03T15:05:01;11.60;41.70
78779;DHT22;68121;52.404;5.318;2023-04-03T15:07:32;11.50;41.90
78779;DHT22;68121;52.404;5.318;2023-04-03T15:12:50;11.30;42.30
78779;DHT22;68121;52.404;5.318;2023-04-03T15:15:19;11.30;42.50
78779;DHT22;68121;52.404;5.318;2023-04-03T15:17:47;11.30;42.60
78779;DHT22;68121;52.404;5.318;2023-04-03T15:20:20;11.30;42.50
78779;DHT22;68121;52.404;5.318;2023-04-03T15:22:46;11.10;42.20
78779;DHT22;68121;52.404;5.318;2023-04-03T15:25:13;11.00;42.20
78779;DHT22;68121;52.404;5.318;2023-04-03T15:27:39;11.00;42.00
78779;DHT22;68121;52.404;5.318;2023-04-03T15:30:14;10.90;42.10
78779;DHT22;68121;52.404;5.318;2023-04-03T15:32:40;10.90;42.20
78779;DHT22;68121;52.404;5.318;2023-04-03T15:35:06;10.90;42.20
78779;DHT22;68121;52.404;5.318;2023-04-03T15:37:33;10.90;42.20
78779;DHT22;68121;52.404;5.318;2023-04-03T15:39:59;10.80;42.20
78779;DHT22;68121;52.404;5.318;2023-04-03T15:42:25;10.70;42.10
78779;DHT22;68121;52.404;5.318;2023-04-03T15:44:51;10.50;42.20
78779;DHT22;68121;52.404;5.318;2023-04-03T15:47:17;10.30;42.60
78779;DHT22;68121;52.404;5.318;2023-04-03T15:49:43;10.40;42.90
78779;DHT22;68121;52.404;5.318;2023-04-03T15:52:09;10.40;43.00
78779;DHT22;68121;52.404;5.318;2023-04-03T15:54:35;10.40;43.10
78779;DHT22;68121;52.404;5.318;2023-04-03T15:57:01;10.40;43.30
78779;DHT22;68121;52.404;5.318;2023-04-03T15:59:27;10.50;43.40
78779;DHT22;68121;52.404;5.318;2023-04-03T16:01:56;10.40;43.50
78779;DHT22;68121;52.404;5.318;2023-04-03T16:04:22;10.50;43.60
78779;DHT22;68121;52.404;5.318;2023-04-03T16:06:49;10.50;43.70
78779;DHT22;68121;52.404;5.318;2023-04-03T16:09:15;10.40;43.60
78779;DHT22;68121;52.404;5.318;2023-04-03T16:11:41;10.30;43.50
78779;DHT22;68121;52.404;5.318;2023-04-03T16:14:09;10.30;43.50
78779;DHT22;68121;52.404;5.318;2023-04-03T16:16:35;10.20;43.60
78779;DHT22;68121;52.404;5.318;2023-04-03T16:19:02;10.20;43.70
78779;DHT22;68121;52.404;5.318;2023-04-03T16:21:28;10.20;43.80
78779;DHT22;68121;52.404;5.318;2023-04-03T16:23:57;10.20;44.00
78779;DHT22;68121;52.404;5.318;2023-04-03T16:26:24;10.20;44.10
78779;DHT22;68121;52.404;5.318;2023-04-03T16:28:51;10.20;44.10
78779;DHT22;68121;52.404;5.318;2023-04-03T16:31:17;10.20;44.10
78779;DHT22;68121;52.404;5.318;2023-04-03T16:33:44;10.10;44.20
78779;DHT22;68121;52.404;5.318;2023-04-03T16:36:10;10.10;44.20
78779;DHT22;68121;52.404;5.318;2023-04-03T16:38:36;10.00;44.20
78779;DHT22;68121;52.404;5.318;2023-04-03T16:41:02;10.00;44.20
78779;DHT22;68121;52.404;5.318;2023-04-03T16:43:33;10.00;44.20
78779;DHT22;68121;52.404;5.318;2023-04-03T16:45:59;10.00;44.40
78779;DHT22;68121;52.404;5.318;2023-04-03T16:48:29;9.90;44.40
78779;DHT22;68121;52.404;5.318;2023-04-03T16:50:55;9.80;44.50
78779;DHT22;68121;52.404;5.318;2023-04-03T16:53:22;9.70;44.60
78779;DHT22;68121;52.404;5.318;2023-04-03T16:55:49;9.70;44.60
78779;DHT22;68121;52.404;5.318;2023-04-03T16:58:16;9.70;44.70
78779;DHT22;68121;52.404;5.318;2023-04-03T17:00:42;9.70;44.60
78779;DHT22;68121;52.404;5.318;2023-04-03T17:03:10;9.70;44.60
78779;DHT22;68121;52.404;5.318;2023-04-03T17:05:36;9.70;44.60
78779;DHT22;68121;52.404;5.318;2023-04-03T17:08:02;9.70;44.60
78779;DHT22;68121;52.404;5.318;2023-04-03T17:10:28;9.70;44.60
78779;DHT22;68121;52.404;5.318;2023-04-03T17:12:55;9.60;44.70
78779;DHT22;68121;52.404;5.318;2023-04-03T17:15:21;9.50;44.70
78779;DHT22;68121;52.404;5.318;2023-04-03T17:17:48;9.40;44.80
78779;DHT22;68121;52.404;5.318;2023-04-03T17:20:16;9.40;44.90
78779;DHT22;68121;52.404;5.318;2023-04-03T17:22:43;9.40;44.90
78779;DHT22;68121;52.404;5.318;2023-04-03T17:25:10;9.40;44.90
78779;DHT22;68121;52.404;5.318;2023-04-03T17:27:36;9.40;44.90
78779;DHT22;68121;52.404;5.318;2023-04-03T17:30:04;9.30;44.90
78779;DHT22;68121;52.404;5.318;2023-04-03T17:32:30;9.20;45.00
78779;DHT22;68121;52.404;5.318;2023-04-03T17:34:56;9.20;45.10
78779;DHT22;68121;52.404;5.318;2023-04-03T17:37:23;9.20;45.10
78779;DHT22;68121;52.404;5.318;2023-04-03T17:39:49;9.30;45.30
78779;DHT22;68121;52.404;5.318;2023-04-03T17:42:15;9.20;45.30
78779;DHT22;68121;52.404;5.318;2023-04-03T17:44:41;9.20;45.40
78779;DHT22;68121;52.404;5.318;2023-04-03T17:47:07;9.20;45.50
78779;DHT22;68121;52.404;5.318;2023-04-03T17:49:33;9.20;45.50